Terminal Aerodrome Forecast
Issued by NWS Tampa Bay Area, FL

Home | Current Version | Previous Version | Text Only | Print | Product List | Glossary On
Versions: 1 2 3 4 5 6 7 8 9 10 11 12 13 14 15 16 17 18 19
000
FTUS42 KTBW 011100
TAFSRQ
TAF
KSRQ 011131Z 0112/0212 07007KT 6SM BR SCT010 BKN015 BKN060
      TEMPO 0112/0114 BKN009
     FM011500 14008KT P6SM SCT020 SCT060
     FM011900 25009KT P6SM VCSH SCT030 BKN070
     FM020000 VRB05KT P6SM SCT030 SCT070
     FM020600 VRB04KT 4SM BR SCT012=

USA.gov is the U.S. government's official web portal to all federal, state and local government web resources and services.